sensor_id;sensor_type;location;lat;lon;timestamp;P1;durP1;ratioP1;P2;durP2;ratioP2
787;SDS011;16074;42.708;23.312;2023-04-03T00:01:25;8.30;;;7.50;;
787;SDS011;16074;42.708;23.312;2023-04-03T00:03:54;10.15;;;8.38;;
787;SDS011;16074;42.708;23.312;2023-04-03T00:06:22;10.65;;;9.00;;
787;SDS011;16074;42.708;23.312;2023-04-03T00:08:53;12.82;;;9.63;;
787;SDS011;16074;42.708;23.312;2023-04-03T00:11:21;10.45;;;8.77;;
787;SDS011;16074;42.708;23.312;2023-04-03T00:13:49;10.63;;;9.57;;
787;SDS011;16074;42.708;23.312;2023-04-03T00:16:18;11.10;;;10.00;;
787;SDS011;16074;42.708;23.312;2023-04-03T00:18:46;13.48;;;12.10;;
787;SDS011;16074;42.708;23.312;2023-04-03T00:21:14;14.50;;;11.70;;
787;SDS011;16074;42.708;23.312;2023-04-03T00:23:43;11.35;;;10.25;;
787;SDS011;16074;42.708;23.312;2023-04-03T00:26:12;11.65;;;10.57;;
787;SDS011;16074;42.708;23.312;2023-04-03T00:28:41;11.70;;;10.50;;
787;SDS011;16074;42.708;23.312;2023-04-03T00:31:09;12.00;;;10.35;;
787;SDS011;16074;42.708;23.312;2023-04-03T00:33:38;11.68;;;10.23;;
787;SDS011;16074;42.708;23.312;2023-04-03T00:36:07;10.32;;;9.32;;
787;SDS011;16074;42.708;23.312;2023-04-03T00:38:36;11.57;;;10.00;;
787;SDS011;16074;42.708;23.312;2023-04-03T00:41:04;10.40;;;9.50;;
787;SDS011;16074;42.708;23.312;2023-04-03T00:43:35;10.65;;;9.35;;
787;SDS011;16074;42.708;23.312;2023-04-03T00:46:03;12.90;;;10.13;;
787;SDS011;16074;42.708;23.312;2023-04-03T00:48:33;11.27;;;10.15;;
787;SDS011;16074;42.708;23.312;2023-04-03T00:51:04;12.50;;;11.15;;
787;SDS011;16074;42.708;23.312;2023-04-03T00:53:35;10.63;;;9.63;;
787;SDS011;16074;42.708;23.312;2023-04-03T00:56:07;8.93;;;8.18;;
787;SDS011;16074;42.708;23.312;2023-04-03T00:58:41;11.25;;;9.45;;
787;SDS011;16074;42.708;23.312;2023-04-03T01:01:13;10.88;;;9.85;;
787;SDS011;16074;42.708;23.312;2023-04-03T01:03:43;12.63;;;10.88;;
787;SDS011;16074;42.708;23.312;2023-04-03T01:06:13;11.95;;;8.20;;
787;SDS011;16074;42.708;23.312;2023-04-03T01:08:45;9.45;;;8.55;;
787;SDS011;16074;42.708;23.312;2023-04-03T01:11:16;8.48;;;7.65;;
787;SDS011;16074;42.708;23.312;2023-04-03T01:13:46;9.15;;;7.78;;
787;SDS011;16074;42.708;23.312;2023-04-03T01:16:15;8.80;;;7.68;;
787;SDS011;16074;42.708;23.312;2023-04-03T01:18:44;9.48;;;8.15;;
787;SDS011;16074;42.708;23.312;2023-04-03T01:24:12;8.02;;;7.22;;
787;SDS011;16074;42.708;23.312;2023-04-03T01:26:55;6.05;;;5.55;;
787;SDS011;16074;42.708;23.312;2023-04-03T01:29:25;6.10;;;5.60;;
787;SDS011;16074;42.708;23.312;2023-04-03T01:31:55;7.00;;;6.30;;
787;SDS011;16074;42.708;23.312;2023-04-03T01:34:24;6.07;;;5.60;;
787;SDS011;16074;42.708;23.312;2023-04-03T01:36:53;5.40;;;4.93;;
787;SDS011;16074;42.708;23.312;2023-04-03T01:39:22;7.05;;;6.35;;
787;SDS011;16074;42.708;23.312;2023-04-03T01:41:51;5.95;;;5.45;;
787;SDS011;16074;42.708;23.312;2023-04-03T01:44:25;5.55;;;5.05;;
787;SDS011;16074;42.708;23.312;2023-04-03T01:46:55;5.55;;;5.05;;
787;SDS011;16074;42.708;23.312;2023-04-03T01:49:26;5.30;;;4.85;;
787;SDS011;16074;42.708;23.312;2023-04-03T01:51:55;6.85;;;6.03;;
787;SDS011;16074;42.708;23.312;2023-04-03T01:54:23;6.05;;;5.55;;
787;SDS011;16074;42.708;23.312;2023-04-03T01:56:52;5.40;;;4.93;;
787;SDS011;16074;42.708;23.312;2023-04-03T01:59:21;4.70;;;4.30;;
787;SDS011;16074;42.708;23.312;2023-04-03T02:01:50;5.35;;;4.90;;
787;SDS011;16074;42.708;23.312;2023-04-03T02:04:20;5.40;;;5.00;;
787;SDS011;16074;42.708;23.312;2023-04-03T02:06:48;7.82;;;5.13;;
787;SDS011;16074;42.708;23.312;2023-04-03T02:09:16;4.82;;;4.47;;
787;SDS011;16074;42.708;23.312;2023-04-03T02:11:45;5.63;;;5.18;;
787;SDS011;16074;42.708;23.312;2023-04-03T02:14:13;4.55;;;4.25;;
787;SDS011;16074;42.708;23.312;2023-04-03T02:16:41;5.43;;;4.25;;
787;SDS011;16074;42.708;23.312;2023-04-03T02:19:10;4.32;;;4.03;;
787;SDS011;16074;42.708;23.312;2023-04-03T02:21:40;4.40;;;4.10;;
787;SDS011;16074;42.708;23.312;2023-04-03T02:24:08;4.72;;;4.38;;
787;SDS011;16074;42.708;23.312;2023-04-03T02:26:37;4.50;;;4.20;;
787;SDS011;16074;42.708;23.312;2023-04-03T02:29:05;4.97;;;4.57;;
787;SDS011;16074;42.708;23.312;2023-04-03T02:31:34;5.20;;;4.80;;
787;SDS011;16074;42.708;23.312;2023-04-03T02:34:04;5.18;;;4.78;;
787;SDS011;16074;42.708;23.312;2023-04-03T02:36:33;5.72;;;5.22;;
787;SDS011;16074;42.708;23.312;2023-04-03T02:39:06;10.57;;;6.05;;
787;SDS011;16074;42.708;23.312;2023-04-03T02:41:34;6.70;;;4.85;;
787;SDS011;16074;42.708;23.312;2023-04-03T02:44:09;5.63;;;5.20;;
787;SDS011;16074;42.708;23.312;2023-04-03T02:46:38;5.85;;;5.15;;
787;SDS011;16074;42.708;23.312;2023-04-03T02:49:07;5.75;;;5.45;;
787;SDS011;16074;42.708;23.312;2023-04-03T02:51:35;5.88;;;4.93;;
787;SDS011;16074;42.708;23.312;2023-04-03T02:54:04;6.95;;;6.35;;
787;SDS011;16074;42.708;23.312;2023-04-03T02:56:36;8.57;;;7.07;;
787;SDS011;16074;42.708;23.312;2023-04-03T02:59:05;7.38;;;6.50;;
787;SDS011;16074;42.708;23.312;2023-04-03T03:01:36;6.13;;;5.65;;
787;SDS011;16074;42.708;23.312;2023-04-03T03:04:04;7.53;;;6.80;;
787;SDS011;16074;42.708;23.312;2023-04-03T03:06:33;6.00;;;5.55;;
787;SDS011;16074;42.708;23.312;2023-04-03T03:09:02;6.10;;;5.60;;
787;SDS011;16074;42.708;23.312;2023-04-03T03:11:32;7.40;;;6.57;;
787;SDS011;16074;42.708;23.312;2023-04-03T03:14:03;7.93;;;6.65;;
787;SDS011;16074;42.708;23.312;2023-04-03T03:16:32;7.30;;;6.53;;
787;SDS011;16074;42.708;23.312;2023-04-03T03:19:01;7.70;;;7.00;;
787;SDS011;16074;42.708;23.312;2023-04-03T03:21:29;10.13;;;9.02;;
787;SDS011;16074;42.708;23.312;2023-04-03T03:23:57;12.82;;;10.15;;
787;SDS011;16074;42.708;23.312;2023-04-03T03:26:26;8.57;;;7.72;;
787;SDS011;16074;42.708;23.312;2023-04-03T03:28:54;8.75;;;7.20;;
787;SDS011;16074;42.708;23.312;2023-04-03T03:31:24;7.72;;;7.10;;
787;SDS011;16074;42.708;23.312;2023-04-03T03:33:53;14.15;;;8.07;;
787;SDS011;16074;42.708;23.312;2023-04-03T03:36:21;15.70;;;8.18;;
787;SDS011;16074;42.708;23.312;2023-04-03T03:38:50;10.20;;;9.20;;
787;SDS011;16074;42.708;23.312;2023-04-03T03:41:18;10.40;;;9.18;;
787;SDS011;16074;42.708;23.312;2023-04-03T03:43:47;10.75;;;9.65;;
787;SDS011;16074;42.708;23.312;2023-04-03T03:46:16;15.45;;;11.85;;
787;SDS011;16074;42.708;23.312;2023-04-03T03:48:46;15.77;;;13.45;;
787;SDS011;16074;42.708;23.312;2023-04-03T03:51:15;26.27;;;19.90;;
787;SDS011;16074;42.708;23.312;2023-04-03T03:53:43;25.30;;;18.15;;
787;SDS011;16074;42.708;23.312;2023-04-03T03:56:15;17.75;;;15.85;;
787;SDS011;16074;42.708;23.312;2023-04-03T03:58:44;15.68;;;14.15;;
787;SDS011;16074;42.708;23.312;2023-04-03T04:01:13;22.05;;;19.30;;
787;SDS011;16074;42.708;23.312;2023-04-03T04:03:47;17.30;;;14.70;;
787;SDS011;16074;42.708;23.312;2023-04-03T04:06:20;16.58;;;10.68;;
787;SDS011;16074;42.708;23.312;2023-04-03T04:08:50;18.95;;;15.75;;
787;SDS011;16074;42.708;23.312;2023-04-03T04:11:19;15.80;;;13.40;;
787;SDS011;16074;42.708;23.312;2023-04-03T04:13:49;16.63;;;13.82;;
787;SDS011;16074;42.708;23.312;2023-04-03T04:16:20;15.60;;;13.95;;
787;SDS011;16074;42.708;23.312;2023-04-03T04:18:50;16.27;;;13.80;;
787;SDS011;16074;42.708;23.312;2023-04-03T04:21:19;18.55;;;11.57;;
787;SDS011;16074;42.708;23.312;2023-04-03T04:23:49;19.73;;;13.02;;
787;SDS011;16074;42.708;23.312;2023-04-03T04:26:19;13.82;;;12.45;;
787;SDS011;16074;42.708;23.312;2023-04-03T04:28:47;13.25;;;11.57;;
787;SDS011;16074;42.708;23.312;2023-04-03T04:31:17;15.23;;;13.00;;
787;SDS011;16074;42.708;23.312;2023-04-03T04:33:45;19.02;;;13.52;;
787;SDS011;16074;42.708;23.312;2023-04-03T04:36:16;15.63;;;12.27;;
787;SDS011;16074;42.708;23.312;2023-04-03T04:38:45;14.32;;;12.82;;
787;SDS011;16074;42.708;23.312;2023-04-03T04:41:14;13.85;;;12.45;;
787;SDS011;16074;42.708;23.312;2023-04-03T04:43:43;18.33;;;13.05;;
787;SDS011;16074;42.708;23.312;2023-04-03T04:46:12;16.85;;;13.68;;
787;SDS011;16074;42.708;23.312;2023-04-03T04:48:47;14.25;;;12.73;;
787;SDS011;16074;42.708;23.312;2023-04-03T04:51:20;16.13;;;14.43;;
787;SDS011;16074;42.708;23.312;2023-04-03T04:53:48;15.35;;;13.68;;
787;SDS011;16074;42.708;23.312;2023-04-03T04:56:19;14.95;;;13.45;;
787;SDS011;16074;42.708;23.312;2023-04-03T04:58:47;20.42;;;14.10;;
787;SDS011;16074;42.708;23.312;2023-04-03T05:01:18;17.45;;;14.63;;
787;SDS011;16074;42.708;23.312;2023-04-03T05:03:56;16.55;;;14.20;;
787;SDS011;16074;42.708;23.312;2023-04-03T05:06:26;20.73;;;16.13;;
787;SDS011;16074;42.708;23.312;2023-04-03T05:08:56;16.67;;;13.75;;
787;SDS011;16074;42.708;23.312;2023-04-03T05:11:25;36.45;;;26.83;;
787;SDS011;16074;42.708;23.312;2023-04-03T05:13:54;45.05;;;27.65;;
787;SDS011;16074;42.708;23.312;2023-04-03T05:16:24;41.35;;;28.23;;
787;SDS011;16074;42.708;23.312;2023-04-03T05:18:53;35.17;;;24.13;;
787;SDS011;16074;42.708;23.312;2023-04-03T05:21:22;32.80;;;22.83;;
787;SDS011;16074;42.708;23.312;2023-04-03T05:23:55;33.38;;;25.27;;
787;SDS011;16074;42.708;23.312;2023-04-03T05:26:23;32.42;;;22.98;;
787;SDS011;16074;42.708;23.312;2023-04-03T05:28:53;30.38;;;21.38;;
787;SDS011;16074;42.708;23.312;2023-04-03T05:31:21;23.85;;;19.23;;
787;SDS011;16074;42.708;23.312;2023-04-03T05:33:51;23.27;;;17.73;;
787;SDS011;16074;42.708;23.312;2023-04-03T05:36:20;26.88;;;19.60;;
787;SDS011;16074;42.708;23.312;2023-04-03T05:38:55;31.58;;;20.63;;
787;SDS011;16074;42.708;23.312;2023-04-03T05:41:25;27.02;;;19.98;;
787;SDS011;16074;42.708;23.312;2023-04-03T05:43:53;31.30;;;22.20;;
787;SDS011;16074;42.708;23.312;2023-04-03T05:46:23;30.35;;;24.58;;
787;SDS011;16074;42.708;23.312;2023-04-03T05:48:55;27.70;;;22.17;;
787;SDS011;16074;42.708;23.312;2023-04-03T05:51:28;24.48;;;21.88;;
787;SDS011;16074;42.708;23.312;2023-04-03T05:54:08;32.22;;;20.77;;
787;SDS011;16074;42.708;23.312;2023-04-03T05:56:40;23.63;;;21.17;;
787;SDS011;16074;42.708;23.312;2023-04-03T05:59:09;23.67;;;21.00;;
787;SDS011;16074;42.708;23.312;2023-04-03T06:01:38;27.70;;;23.10;;
787;SDS011;16074;42.708;23.312;2023-04-03T06:04:06;27.10;;;23.58;;
787;SDS011;16074;42.708;23.312;2023-04-03T06:06:43;31.23;;;24.17;;
787;SDS011;16074;42.708;23.312;2023-04-03T06:09:17;28.35;;;23.40;;
787;SDS011;16074;42.708;23.312;2023-04-03T06:11:46;25.35;;;22.23;;
787;SDS011;16074;42.708;23.312;2023-04-03T06:14:16;26.10;;;22.17;;
787;SDS011;16074;42.708;23.312;2023-04-03T06:16:45;24.67;;;18.38;;
787;SDS011;16074;42.708;23.312;2023-04-03T06:19:13;21.08;;;17.45;;
787;SDS011;16074;42.708;23.312;2023-04-03T06:21:46;17.50;;;15.45;;
787;SDS011;16074;42.708;23.312;2023-04-03T06:24:15;19.42;;;14.13;;
787;SDS011;16074;42.708;23.312;2023-04-03T06:26:46;15.30;;;13.70;;
787;SDS011;16074;42.708;23.312;2023-04-03T06:29:15;18.88;;;13.13;;
787;SDS011;16074;42.708;23.312;2023-04-03T06:31:43;13.30;;;11.90;;
787;SDS011;16074;42.708;23.312;2023-04-03T06:34:12;16.02;;;12.65;;
787;SDS011;16074;42.708;23.312;2023-04-03T06:36:44;16.30;;;12.52;;
787;SDS011;16074;42.708;23.312;2023-04-03T06:39:13;14.70;;;12.32;;
787;SDS011;16074;42.708;23.312;2023-04-03T06:41:44;15.05;;;12.95;;
787;SDS011;16074;42.708;23.312;2023-04-03T06:44:12;12.75;;;11.18;;
787;SDS011;16074;42.708;23.312;2023-04-03T06:46:43;12.98;;;11.75;;
787;SDS011;16074;42.708;23.312;2023-04-03T06:49:13;15.20;;;12.07;;
787;SDS011;16074;42.708;23.312;2023-04-03T06:51:41;13.80;;;12.32;;
787;SDS011;16074;42.708;23.312;2023-04-03T06:54:10;14.63;;;12.90;;
787;SDS011;16074;42.708;23.312;2023-04-03T06:56:38;14.27;;;12.50;;
787;SDS011;16074;42.708;23.312;2023-04-03T06:59:08;16.60;;;14.23;;
787;SDS011;16074;42.708;23.312;2023-04-03T07:01:38;14.52;;;11.95;;
787;SDS011;16074;42.708;23.312;2023-04-03T07:04:07;14.55;;;13.13;;
787;SDS011;16074;42.708;23.312;2023-04-03T07:06:36;17.00;;;15.13;;
787;SDS011;16074;42.708;23.312;2023-04-03T07:09:04;16.30;;;14.60;;
787;SDS011;16074;42.708;23.312;2023-04-03T07:11:32;18.98;;;15.27;;
787;SDS011;16074;42.708;23.312;2023-04-03T07:14:01;16.23;;;14.57;;
787;SDS011;16074;42.708;23.312;2023-04-03T07:16:31;17.60;;;15.90;;
787;SDS011;16074;42.708;23.312;2023-04-03T07:18:59;17.73;;;15.15;;
787;SDS011;16074;42.708;23.312;2023-04-03T07:21:28;22.88;;;18.33;;
787;SDS011;16074;42.708;23.312;2023-04-03T07:23:56;21.23;;;17.65;;
787;SDS011;16074;42.708;23.312;2023-04-03T07:26:24;20.55;;;17.63;;
787;SDS011;16074;42.708;23.312;2023-04-03T07:28:53;20.42;;;17.15;;
787;SDS011;16074;42.708;23.312;2023-04-03T07:31:21;25.55;;;19.20;;
787;SDS011;16074;42.708;23.312;2023-04-03T07:33:51;20.48;;;18.38;;
787;SDS011;16074;42.708;23.312;2023-04-03T07:36:20;20.48;;;15.55;;
787;SDS011;16074;42.708;23.312;2023-04-03T07:38:50;20.23;;;15.93;;
787;SDS011;16074;42.708;23.312;2023-04-03T07:41:18;18.77;;;16.67;;
787;SDS011;16074;42.708;23.312;2023-04-03T07:43:49;18.02;;;16.27;;
787;SDS011;16074;42.708;23.312;2023-04-03T07:46:18;19.05;;;17.08;;
787;SDS011;16074;42.708;23.312;2023-04-03T07:48:47;25.27;;;17.70;;
787;SDS011;16074;42.708;23.312;2023-04-03T07:51:17;16.95;;;15.25;;
787;SDS011;16074;42.708;23.312;2023-04-03T07:53:45;20.00;;;18.10;;
787;SDS011;16074;42.708;23.312;2023-04-03T07:56:14;24.60;;;17.35;;
787;SDS011;16074;42.708;23.312;2023-04-03T07:58:42;20.95;;;17.25;;
787;SDS011;16074;42.708;23.312;2023-04-03T08:01:10;17.25;;;15.45;;
787;SDS011;16074;42.708;23.312;2023-04-03T08:03:38;16.25;;;14.70;;
787;SDS011;16074;42.708;23.312;2023-04-03T08:06:07;19.17;;;15.43;;
787;SDS011;16074;42.708;23.312;2023-04-03T08:08:43;17.30;;;14.02;;
787;SDS011;16074;42.708;23.312;2023-04-03T08:11:12;16.90;;;15.20;;
787;SDS011;16074;42.708;23.312;2023-04-03T08:13:40;17.55;;;14.90;;
787;SDS011;16074;42.708;23.312;2023-04-03T08:16:10;15.85;;;14.20;;
787;SDS011;16074;42.708;23.312;2023-04-03T08:18:39;16.02;;;14.63;;
787;SDS011;16074;42.708;23.312;2023-04-03T08:21:08;16.35;;;14.30;;
787;SDS011;16074;42.708;23.312;2023-04-03T08:23:37;16.63;;;14.88;;
787;SDS011;16074;42.708;23.312;2023-04-03T08:26:09;23.48;;;15.75;;
787;SDS011;16074;42.708;23.312;2023-04-03T08:28:39;18.38;;;16.48;;
787;SDS011;16074;42.708;23.312;2023-04-03T08:31:09;19.42;;;16.55;;
787;SDS011;16074;42.708;23.312;2023-04-03T08:33:39;24.27;;;17.33;;
787;SDS011;16074;42.708;23.312;2023-04-03T08:36:14;18.17;;;16.42;;
787;SDS011;16074;42.708;23.312;2023-04-03T08:38:46;19.48;;;17.02;;
787;SDS011;16074;42.708;23.312;2023-04-03T08:41:19;21.75;;;19.67;;
787;SDS011;16074;42.708;23.312;2023-04-03T08:44:17;22.10;;;20.00;;
787;SDS011;16074;42.708;23.312;2023-04-03T08:46:56;21.00;;;18.10;;
787;SDS011;16074;42.708;23.312;2023-04-03T08:49:32;21.10;;;17.02;;
787;SDS011;16074;42.708;23.312;2023-04-03T08:52:04;20.05;;;16.58;;
787;SDS011;16074;42.708;23.312;2023-04-03T08:54:40;22.80;;;18.15;;
787;SDS011;16074;42.708;23.312;2023-04-03T08:57:18;26.00;;;17.67;;
787;SDS011;16074;42.708;23.312;2023-04-03T08:59:54;20.13;;;17.88;;
787;SDS011;16074;42.708;23.312;2023-04-03T09:02:24;20.52;;;18.45;;
787;SDS011;16074;42.708;23.312;2023-04-03T09:04:56;18.65;;;16.90;;
787;SDS011;16074;42.708;23.312;2023-04-03T09:07:28;21.52;;;17.13;;
787;SDS011;16074;42.708;23.312;2023-04-03T09:10:03;20.38;;;17.23;;
787;SDS011;16074;42.708;23.312;2023-04-03T09:12:36;22.05;;;19.92;;
787;SDS011;16074;42.708;23.312;2023-04-03T09:15:09;21.40;;;19.27;;
787;SDS011;16074;42.708;23.312;2023-04-03T09:17:57;22.67;;;18.85;;
787;SDS011;16074;42.708;23.312;2023-04-03T09:20:33;22.85;;;17.05;;
787;SDS011;16074;42.708;23.312;2023-04-03T09:23:12;20.73;;;15.98;;
787;SDS011;16074;42.708;23.312;2023-04-03T09:25:46;20.48;;;18.27;;
787;SDS011;16074;42.708;23.312;2023-04-03T09:28:16;21.10;;;18.58;;
787;SDS011;16074;42.708;23.312;2023-04-03T09:30:45;21.73;;;19.52;;
787;SDS011;16074;42.708;23.312;2023-04-03T09:33:13;23.90;;;20.20;;
787;SDS011;16074;42.708;23.312;2023-04-03T09:35:42;23.97;;;20.80;;
787;SDS011;16074;42.708;23.312;2023-04-03T09:38:15;22.33;;;18.50;;
787;SDS011;16074;42.708;23.312;2023-04-03T09:40:49;28.77;;;19.80;;
787;SDS011;16074;42.708;23.312;2023-04-03T09:43:21;22.43;;;20.40;;
787;SDS011;16074;42.708;23.312;2023-04-03T09:45:53;24.10;;;21.20;;
787;SDS011;16074;42.708;23.312;2023-04-03T09:48:22;24.30;;;21.80;;
787;SDS011;16074;42.708;23.312;2023-04-03T09:50:58;25.67;;;19.17;;
787;SDS011;16074;42.708;23.312;2023-04-03T09:53:33;28.30;;;20.37;;
787;SDS011;16074;42.708;23.312;2023-04-03T09:56:04;22.07;;;19.30;;
787;SDS011;16074;42.708;23.312;2023-04-03T09:58:49;20.60;;;18.67;;
787;SDS011;16074;42.708;23.312;2023-04-03T10:01:20;21.43;;;19.40;;
787;SDS011;16074;42.708;23.312;2023-04-03T10:04:03;25.63;;;18.13;;
787;SDS011;16074;42.708;23.312;2023-04-03T10:06:35;21.60;;;19.20;;
787;SDS011;16074;42.708;23.312;2023-04-03T10:09:04;24.10;;;18.40;;
787;SDS011;16074;42.708;23.312;2023-04-03T10:11:35;21.83;;;18.60;;
787;SDS011;16074;42.708;23.312;2023-04-03T10:14:04;23.70;;;21.30;;
787;SDS011;16074;42.708;23.312;2023-04-03T10:16:44;22.50;;;17.73;;
787;SDS011;16074;42.708;23.312;2023-04-03T10:19:24;19.43;;;17.40;;
787;SDS011;16074;42.708;23.312;2023-04-03T10:22:03;23.43;;;18.37;;
787;SDS011;16074;42.708;23.312;2023-04-03T10:24:47;22.80;;;18.60;;
787;SDS011;16074;42.708;23.312;2023-04-03T10:27:32;20.40;;;18.35;;
787;SDS011;16074;42.708;23.312;2023-04-03T10:30:13;20.17;;;18.05;;
787;SDS011;16074;42.708;23.312;2023-04-03T10:33:00;20.23;;;16.50;;
787;SDS011;16074;42.708;23.312;2023-04-03T10:35:43;18.90;;;16.85;;
787;SDS011;16074;42.708;23.312;2023-04-03T10:38:18;15.38;;;13.88;;
787;SDS011;16074;42.708;23.312;2023-04-03T10:40:52;17.10;;;14.68;;
787;SDS011;16074;42.708;23.312;2023-04-03T10:43:27;20.13;;;14.50;;
787;SDS011;16074;42.708;23.312;2023-04-03T10:46:03;17.73;;;13.03;;
787;SDS011;16074;42.708;23.312;2023-04-03T10:48:42;15.68;;;13.40;;
787;SDS011;16074;42.708;23.312;2023-04-03T10:51:23;20.23;;;12.57;;
787;SDS011;16074;42.708;23.312;2023-04-03T10:53:56;13.65;;;12.20;;
787;SDS011;16074;42.708;23.312;2023-04-03T10:56:31;13.82;;;11.82;;
787;SDS011;16074;42.708;23.312;2023-04-03T10:59:09;10.57;;;9.47;;
787;SDS011;16074;42.708;23.312;2023-04-03T11:01:46;9.40;;;8.50;;
787;SDS011;16074;42.708;23.312;2023-04-03T11:04:17;10.55;;;9.45;;
787;SDS011;16074;42.708;23.312;2023-04-03T11:06:49;18.27;;;12.60;;
787;SDS011;16074;42.708;23.312;2023-04-03T11:09:23;10.98;;;9.40;;
787;SDS011;16074;42.708;23.312;2023-04-03T11:11:55;11.45;;;10.02;;
787;SDS011;16074;42.708;23.312;2023-04-03T11:14:30;12.40;;;9.55;;
787;SDS011;16074;42.708;23.312;2023-04-03T11:17:08;9.43;;;8.13;;
787;SDS011;16074;42.708;23.312;2023-04-03T11:19:44;8.95;;;8.25;;
787;SDS011;16074;42.708;23.312;2023-04-03T11:22:20;8.57;;;7.10;;
787;SDS011;16074;42.708;23.312;2023-04-03T11:24:55;9.93;;;8.93;;
787;SDS011;16074;42.708;23.312;2023-04-03T11:27:27;9.15;;;8.45;;
787;SDS011;16074;42.708;23.312;2023-04-03T11:30:05;9.02;;;8.05;;
787;SDS011;16074;42.708;23.312;2023-04-03T11:32:45;7.38;;;6.53;;
787;SDS011;16074;42.708;23.312;2023-04-03T11:35:27;7.45;;;6.90;;
787;SDS011;16074;42.708;23.312;2023-04-03T11:37:56;8.27;;;7.50;;
787;SDS011;16074;42.708;23.312;2023-04-03T11:40:29;6.35;;;5.95;;
787;SDS011;16074;42.708;23.312;2023-04-03T11:43:04;7.43;;;6.80;;
787;SDS011;16074;42.708;23.312;2023-04-03T11:45:35;7.70;;;6.90;;
787;SDS011;16074;42.708;23.312;2023-04-03T11:48:40;7.25;;;6.75;;
787;SDS011;16074;42.708;23.312;2023-04-03T11:51:40;6.95;;;6.35;;
787;SDS011;16074;42.708;23.312;2023-04-03T12:09:56;6.18;;;5.75;;
787;SDS011;16074;42.708;23.312;2023-04-03T12:12:38;7.70;;;7.20;;
787;SDS011;16074;42.708;23.312;2023-04-03T12:15:25;6.10;;;5.70;;
787;SDS011;16074;42.708;23.312;2023-04-03T12:24:47;6.38;;;5.90;;
787;SDS011;16074;42.708;23.312;2023-04-03T12:27:27;7.25;;;6.43;;
787;SDS011;16074;42.708;23.312;2023-04-03T12:30:07;6.82;;;6.22;;
787;SDS011;16074;42.708;23.312;2023-04-03T12:33:02;7.78;;;6.95;;
787;SDS011;16074;42.708;23.312;2023-04-03T12:35:43;8.63;;;7.95;;
787;SDS011;16074;42.708;23.312;2023-04-03T12:38:50;9.43;;;8.63;;
787;SDS011;16074;42.708;23.312;2023-04-03T12:41:41;7.20;;;6.70;;
787;SDS011;16074;42.708;23.312;2023-04-03T12:44:30;7.88;;;7.28;;
787;SDS011;16074;42.708;23.312;2023-04-03T12:47:10;9.23;;;8.52;;
787;SDS011;16074;42.708;23.312;2023-04-03T12:49:55;9.82;;;9.02;;
787;SDS011;16074;42.708;23.312;2023-04-03T12:52:35;9.13;;;8.43;;
787;SDS011;16074;42.708;23.312;2023-04-03T12:55:13;9.80;;;9.00;;
787;SDS011;16074;42.708;23.312;2023-04-03T12:57:43;11.40;;;8.50;;
787;SDS011;16074;42.708;23.312;2023-04-03T13:00:20;10.90;;;10.00;;
787;SDS011;16074;42.708;23.312;2023-04-03T13:02:54;10.73;;;9.57;;
787;SDS011;16074;42.708;23.312;2023-04-03T13:05:23;14.40;;;10.13;;
787;SDS011;16074;42.708;23.312;2023-04-03T13:07:52;11.60;;;10.68;;
787;SDS011;16074;42.708;23.312;2023-04-03T13:10:29;11.75;;;10.25;;
787;SDS011;16074;42.708;23.312;2023-04-03T13:13:07;12.40;;;11.40;;
787;SDS011;16074;42.708;23.312;2023-04-03T13:15:43;12.80;;;11.70;;
787;SDS011;16074;42.708;23.312;2023-04-03T13:18:25;15.35;;;13.90;;
787;SDS011;16074;42.708;23.312;2023-04-03T13:20:57;14.48;;;13.05;;
787;SDS011;16074;42.708;23.312;2023-04-03T13:23:29;16.40;;;14.80;;
787;SDS011;16074;42.708;23.312;2023-04-03T13:25:59;17.75;;;15.95;;
787;SDS011;16074;42.708;23.312;2023-04-03T13:28:31;16.45;;;14.90;;
787;SDS011;16074;42.708;23.312;2023-04-03T13:31:04;16.02;;;14.32;;
787;SDS011;16074;42.708;23.312;2023-04-03T13:33:37;16.23;;;14.55;;
787;SDS011;16074;42.708;23.312;2023-04-03T13:36:07;15.55;;;14.10;;
787;SDS011;16074;42.708;23.312;2023-04-03T13:38:45;16.70;;;15.15;;
787;SDS011;16074;42.708;23.312;2023-04-03T13:41:22;15.20;;;13.60;;
787;SDS011;16074;42.708;23.312;2023-04-03T13:43:52;18.60;;;16.70;;
787;SDS011;16074;42.708;23.312;2023-04-03T13:46:33;20.63;;;18.75;;
787;SDS011;16074;42.708;23.312;2023-04-03T13:49:16;17.17;;;15.57;;
787;SDS011;16074;42.708;23.312;2023-04-03T13:51:46;19.75;;;17.73;;
787;SDS011;16074;42.708;23.312;2023-04-03T13:54:32;19.90;;;18.10;;
787;SDS011;16074;42.708;23.312;2023-04-03T13:57:03;19.83;;;17.92;;
787;SDS011;16074;42.708;23.312;2023-04-03T13:59:39;20.90;;;18.90;;
787;SDS011;16074;42.708;23.312;2023-04-03T14:02:17;61.25;;;54.78;;
787;SDS011;16074;42.708;23.312;2023-04-03T14:04:50;24.02;;;21.52;;
787;SDS011;16074;42.708;23.312;2023-04-03T14:07:25;24.05;;;21.75;;
787;SDS011;16074;42.708;23.312;2023-04-03T14:09:54;23.40;;;21.10;;
787;SDS011;16074;42.708;23.312;2023-04-03T14:12:24;24.35;;;21.75;;
787;SDS011;16074;42.708;23.312;2023-04-03T14:14:58;26.90;;;21.73;;
787;SDS011;16074;42.708;23.312;2023-04-03T14:17:30;24.35;;;21.85;;
787;SDS011;16074;42.708;23.312;2023-04-03T14:19:59;26.98;;;24.00;;
787;SDS011;16074;42.708;23.312;2023-04-03T14:22:29;23.90;;;21.63;;
787;SDS011;16074;42.708;23.312;2023-04-03T14:24:59;20.20;;;18.20;;
787;SDS011;16074;42.708;23.312;2023-04-03T14:27:28;21.50;;;19.20;;
787;SDS011;16074;42.708;23.312;2023-04-03T14:29:58;16.05;;;14.63;;
787;SDS011;16074;42.708;23.312;2023-04-03T14:32:27;17.77;;;15.90;;
787;SDS011;16074;42.708;23.312;2023-04-03T14:34:57;16.08;;;14.43;;
787;SDS011;16074;42.708;23.312;2023-04-03T14:37:28;15.77;;;14.38;;
787;SDS011;16074;42.708;23.312;2023-04-03T14:39:58;15.60;;;14.10;;
787;SDS011;16074;42.708;23.312;2023-04-03T14:42:29;29.92;;;26.73;;
787;SDS011;16074;42.708;23.312;2023-04-03T14:44:59;51.92;;;46.58;;
787;SDS011;16074;42.708;23.312;2023-04-03T14:47:29;58.45;;;52.55;;
787;SDS011;16074;42.708;23.312;2023-04-03T14:50:00;44.65;;;39.95;;
787;SDS011;16074;42.708;23.312;2023-04-03T14:52:30;27.85;;;25.02;;
787;SDS011;16074;42.708;23.312;2023-04-03T14:55:00;19.42;;;17.63;;
787;SDS011;16074;42.708;23.312;2023-04-03T14:57:29;16.70;;;15.20;;
787;SDS011;16074;42.708;23.312;2023-04-03T14:59:58;19.02;;;17.13;;
787;SDS011;16074;42.708;23.312;2023-04-03T15:02:29;16.40;;;14.90;;
787;SDS011;16074;42.708;23.312;2023-04-03T15:05:01;15.88;;;14.18;;
787;SDS011;16074;42.708;23.312;2023-04-03T15:07:32;15.27;;;13.93;;
787;SDS011;16074;42.708;23.312;2023-04-03T15:10:05;13.27;;;12.07;;
787;SDS011;16074;42.708;23.312;2023-04-03T15:12:43;12.07;;;10.88;;
787;SDS011;16074;42.708;23.312;2023-04-03T15:15:12;11.50;;;10.50;;
787;SDS011;16074;42.708;23.312;2023-04-03T15:17:41;12.32;;;11.32;;
787;SDS011;16074;42.708;23.312;2023-04-03T15:20:14;13.32;;;12.13;;
787;SDS011;16074;42.708;23.312;2023-04-03T15:22:43;11.30;;;10.40;;
787;SDS011;16074;42.708;23.312;2023-04-03T15:25:12;10.75;;;9.77;;
787;SDS011;16074;42.708;23.312;2023-04-03T15:27:40;12.13;;;11.13;;
787;SDS011;16074;42.708;23.312;2023-04-03T15:30:11;12.32;;;11.32;;
787;SDS011;16074;42.708;23.312;2023-04-03T15:32:42;13.80;;;12.50;;
787;SDS011;16074;42.708;23.312;2023-04-03T15:35:10;12.95;;;11.65;;